createdAt,value
2022-10-24T00:03:30.987Z,10.35
2022-10-24T00:13:31.020Z,10.32
2022-10-24T00:23:31.016Z,10.23
2022-10-24T00:33:31.025Z,10.16
2022-10-24T00:43:31.002Z,10.23
2022-10-24T00:53:31.028Z,10.22
2022-10-24T01:03:30.996Z,10.19
2022-10-24T01:13:31.043Z,10.2
2022-10-24T01:23:30.983Z,10.22
2022-10-24T01:33:31.020Z,10.13
2022-10-24T01:43:30.971Z,10
2022-10-24T01:53:31.005Z,9.86
2022-10-24T02:03:30.973Z,9.84
2022-10-24T02:13:30.985Z,9.92
2022-10-24T02:23:30.944Z,9.88
2022-10-24T02:33:30.963Z,9.94
2022-10-24T02:43:30.946Z,9.84
2022-10-24T02:53:30.953Z,9.75
2022-10-24T03:03:30.960Z,9.71
2022-10-24T03:13:30.959Z,9.76
2022-10-24T03:23:30.942Z,9.79
2022-10-24T03:33:30.965Z,9.83
2022-10-24T03:43:30.917Z,9.76
2022-10-24T03:53:30.961Z,9.79
2022-10-24T04:03:30.944Z,9.84
2022-10-24T04:13:30.948Z,9.67
2022-10-24T04:23:30.942Z,9.66
2022-10-24T04:33:30.940Z,9.8
2022-10-24T04:43:30.903Z,9.9
2022-10-24T04:53:30.917Z,9.87
2022-10-24T05:03:30.917Z,9.9
2022-10-24T05:13:32.910Z,10.02
2022-10-24T05:23:30.873Z,10.23
2022-10-24T05:33:30.897Z,10.21
2022-10-24T05:43:30.881Z,10.17
2022-10-24T05:53:30.928Z,10.06
2022-10-24T06:03:30.870Z,10.14
2022-10-24T06:13:33.751Z,10.21
2022-10-24T06:23:30.843Z,10.17
2022-10-24T06:33:30.908Z,10.26
2022-10-24T06:43:30.860Z,10.31
2022-10-24T06:53:30.878Z,10.49
2022-10-24T07:13:30.884Z,10.82
2022-10-24T07:23:30.836Z,10.94
2022-10-24T07:33:30.883Z,11.09
2022-10-24T07:43:30.829Z,11.29
2022-10-24T07:53:30.871Z,11.4
2022-10-24T08:03:30.829Z,11.81
2022-10-24T08:13:30.831Z,12
2022-10-24T08:23:30.804Z,12.04
2022-10-24T08:33:30.811Z,12.47
2022-10-24T08:43:30.811Z,12.71
2022-10-24T08:53:30.818Z,13.02
2022-10-24T09:03:51.059Z,12.95
2022-10-24T09:13:30.814Z,13.5
2022-10-24T09:23:30.780Z,13.51
2022-10-24T09:33:30.778Z,13.73
2022-10-24T09:43:30.773Z,13.69
2022-10-24T09:53:30.776Z,14.01
2022-10-24T10:03:30.750Z,13.89
2022-10-24T10:13:30.765Z,14.09
2022-10-24T10:23:30.710Z,14.29
2022-10-24T10:33:30.794Z,14.26
2022-10-24T10:43:30.725Z,14.41
2022-10-24T10:53:30.744Z,14.62
2022-10-24T11:03:30.710Z,14.55
2022-10-24T11:13:33.707Z,14.15
2022-10-24T11:23:30.736Z,14.41
2022-10-24T11:33:30.725Z,15.13
2022-10-24T11:43:30.656Z,15.51
2022-10-24T11:53:38.122Z,15.52
2022-10-24T12:03:30.654Z,15.51
2022-10-24T12:13:31.398Z,15.93
2022-10-24T12:23:30.645Z,16.19
2022-10-24T12:33:30.636Z,16.27
2022-10-24T12:43:30.634Z,15.86
2022-10-24T12:53:30.653Z,15.63
2022-10-24T13:03:30.668Z,15.85
2022-10-24T13:13:30.680Z,15.75
2022-10-24T13:23:30.601Z,15.67
2022-10-24T13:33:30.602Z,15.63
2022-10-24T13:43:30.575Z,15.49
2022-10-24T13:53:31.119Z,15.38
2022-10-24T14:03:30.582Z,15.29
2022-10-24T14:13:30.590Z,15.23
2022-10-24T14:23:30.557Z,15.43
2022-10-24T14:33:38.952Z,15.47
2022-10-24T14:43:30.512Z,15.39
2022-10-24T14:53:30.556Z,15.23
2022-10-24T15:03:30.517Z,15.11
2022-10-24T15:13:30.515Z,15.04
2022-10-24T15:23:30.511Z,14.99
2022-10-24T15:33:30.578Z,14.95
2022-10-24T15:43:30.510Z,14.96
2022-10-24T15:53:30.572Z,14.9
2022-10-24T16:03:30.487Z,14.88
2022-10-24T16:13:30.479Z,14.74
2022-10-24T16:23:30.441Z,14.67
2022-10-24T16:33:30.480Z,14.6
2022-10-24T16:43:30.439Z,14.57
2022-10-24T16:53:30.504Z,14.54
2022-10-24T17:03:30.428Z,14.51
2022-10-24T17:13:30.461Z,14.55
2022-10-24T17:23:30.413Z,14.59
2022-10-24T17:33:30.432Z,14.56
2022-10-24T17:43:30.415Z,14.44
2022-10-24T17:53:30.442Z,14.51
2022-10-24T18:03:30.378Z,14.54
2022-10-24T18:13:30.427Z,13.68
2022-10-24T18:23:30.389Z,13.39
2022-10-24T18:33:30.405Z,13.17
2022-10-24T18:43:30.359Z,12.84
2022-10-24T18:53:30.390Z,12.69
2022-10-24T19:03:30.349Z,12.59
2022-10-24T19:13:30.349Z,12.48
2022-10-24T19:23:30.348Z,12.46
2022-10-24T19:33:30.386Z,12.34
2022-10-24T19:43:30.324Z,12.29
2022-10-24T19:53:30.363Z,12.26
2022-10-24T20:03:30.298Z,12.14
2022-10-24T20:13:30.355Z,11.99
2022-10-24T20:23:30.332Z,11.93
2022-10-24T20:33:30.338Z,11.86
2022-10-24T20:43:30.298Z,11.84
2022-10-24T20:53:30.305Z,11.85
2022-10-24T21:03:30.284Z,11.88
2022-10-24T21:13:30.336Z,11.91
2022-10-24T21:23:30.270Z,11.93
2022-10-24T21:33:30.331Z,11.99
2022-10-24T21:43:30.262Z,11.95
2022-10-24T21:53:30.288Z,11.92
2022-10-24T22:03:30.250Z,11.92
2022-10-24T22:13:30.302Z,11.91
2022-10-24T22:23:30.265Z,11.88
2022-10-24T22:33:30.294Z,11.84
2022-10-24T22:43:30.253Z,11.88
2022-10-24T22:53:30.279Z,11.9
2022-10-24T23:03:30.226Z,11.93
2022-10-24T23:13:30.255Z,11.93
2022-10-24T23:23:30.230Z,11.86
2022-10-24T23:33:30.249Z,11.92
2022-10-24T23:43:30.210Z,11.93
2022-10-24T23:53:30.238Z,11.93
